createdAt,value
2023-04-10T00:01:52.903Z,98168.59
2023-04-10T00:06:56.135Z,98179.00
2023-04-10T00:12:00.796Z,98171.41
2023-04-10T00:17:03.845Z,98170.69
2023-04-10T00:22:07.027Z,98162.97
2023-04-10T00:27:11.802Z,98162.03
2023-04-10T00:32:15.594Z,98149.38
2023-04-10T00:37:18.927Z,98142.00
2023-04-10T00:42:23.576Z,98147.28
2023-04-10T00:47:27.425Z,98143.06
2023-04-10T00:52:30.664Z,98141.69
2023-04-10T00:57:35.388Z,98144.03
2023-04-10T01:02:39.547Z,98143.81
2023-04-10T01:07:55.621Z,98132.97
2023-04-10T01:13:09.953Z,98134.59
2023-04-10T01:18:20.911Z,98129.97
2023-04-10T01:23:48.868Z,98129.44
2023-04-10T01:29:01.663Z,98124.03
2023-04-10T01:34:09.753Z,98125.44
2023-04-10T01:39:13.806Z,98120.78
2023-04-10T01:44:22.635Z,98114.47
2023-04-10T01:49:29.300Z,98121.09
2023-04-10T01:54:39.851Z,98128.81
2023-04-10T01:59:45.687Z,98132.34
2023-04-10T02:04:51.780Z,98133.13
2023-04-10T02:10:01.060Z,98135.03
2023-04-10T02:15:08.700Z,98132.84
2023-04-10T02:20:12.821Z,98136.09
2023-04-10T02:25:17.177Z,98143.16
2023-04-10T02:30:22.211Z,98140.75
2023-04-10T02:35:26.354Z,98136.66
2023-04-10T02:40:29.783Z,98135.34
2023-04-10T02:45:47.315Z,98133.00
2023-04-10T02:50:59.902Z,98136.72
2023-04-10T02:56:06.651Z,98127.00
2023-04-10T03:01:11.339Z,98126.44
2023-04-10T03:06:27.298Z,98131.66
2023-04-10T03:11:32.044Z,98125.81
2023-04-10T03:16:36.855Z,98132.53
2023-04-10T03:21:40.731Z,98122.47
2023-04-10T03:26:43.764Z,98117.28
2023-04-10T03:31:48.428Z,98114.81
2023-04-10T03:36:52.894Z,98110.63
2023-04-10T03:41:56.171Z,98112.47
2023-04-10T03:47:02.599Z,98112.72
2023-04-10T03:52:07.501Z,98111.22
2023-04-10T03:57:11.199Z,98111.41
2023-04-10T04:02:16.023Z,98111.97
2023-04-10T04:07:20.609Z,98113.72
2023-04-10T04:12:34.831Z,98105.03
2023-04-10T04:17:42.598Z,98097.22
2023-04-10T04:22:46.388Z,98101.47
2023-04-10T04:28:07.898Z,98097.41
2023-04-10T04:33:38.295Z,98096.50
2023-04-10T04:39:01.250Z,98098.94
2023-04-10T04:44:15.467Z,98108.38
2023-04-10T04:49:23.084Z,98111.88
2023-04-10T04:54:44.668Z,98114.88
2023-04-10T04:59:50.695Z,98110.97
2023-04-10T05:05:15.871Z,98108.19
2023-04-10T05:10:28.340Z,98112.59
2023-04-10T05:15:51.303Z,98104.81
2023-04-10T05:21:14.267Z,98102.50
2023-04-10T05:26:36.120Z,98107.84
2023-04-10T05:31:57.939Z,98104.59
2023-04-10T05:37:24.100Z,98111.63
2023-04-10T05:42:53.682Z,98111.03
2023-04-10T05:48:19.908Z,98107.38
2023-04-10T05:53:54.067Z,98116.19
2023-04-10T05:59:04.442Z,98119.28
2023-04-10T06:04:26.382Z,98120.00
2023-04-10T06:09:34.437Z,98124.41
2023-04-10T06:14:37.751Z,98119.63
2023-04-10T06:19:41.689Z,98111.34
2023-04-10T06:24:47.052Z,98111.69
2023-04-10T06:29:53.623Z,98108.75
2023-04-10T06:34:59.739Z,98102.94
2023-04-10T06:40:07.405Z,98109.13
2023-04-10T06:45:11.431Z,98093.03
2023-04-10T06:50:26.582Z,98089.28
2023-04-10T06:55:31.802Z,98084.78
2023-04-10T07:00:35.106Z,98084.53
2023-04-10T07:05:40.128Z,98078.56
2023-04-10T07:10:46.680Z,98076.00
2023-04-10T07:15:49.874Z,98079.84
2023-04-10T07:20:54.144Z,98059.75
2023-04-10T07:25:58.914Z,98060.84
2023-04-10T07:31:02.283Z,98056.88
2023-04-10T07:36:06.176Z,98059.06
2023-04-10T07:41:12.213Z,98043.28
2023-04-10T07:46:15.908Z,98039.78
2023-04-10T07:51:19.173Z,98034.75
2023-04-10T07:56:23.872Z,98031.97
2023-04-10T08:01:27.533Z,98023.72
2023-04-10T08:06:31.730Z,98023.00
2023-04-10T08:11:38.264Z,98014.25
2023-04-10T08:16:42.008Z,98018.28
2023-04-10T08:21:45.362Z,98028.19
2023-04-10T08:26:50.104Z,98017.00
2023-04-10T08:31:54.697Z,98029.78
2023-04-10T08:36:58.630Z,98019.94
2023-04-10T08:42:08.001Z,98026.00
2023-04-10T08:47:11.773Z,98011.38
2023-04-10T08:52:17.400Z,98003.25
2023-04-10T08:57:22.601Z,98008.28
2023-04-10T09:02:25.976Z,97988.66
2023-04-10T09:07:29.490Z,97983.75
2023-04-10T09:12:44.950Z,97987.44
2023-04-10T09:17:59.187Z,97967.94
2023-04-10T09:23:02.439Z,97967.22
2023-04-10T09:28:08.884Z,97957.13
2023-04-10T09:33:23.692Z,97950.09
2023-04-10T09:38:27.046Z,97940.16
2023-04-10T09:43:31.591Z,97926.25
2023-04-10T09:48:34.683Z,97917.00
2023-04-10T09:53:50.068Z,97908.88
2023-04-10T09:58:58.000Z,97902.28
2023-04-10T10:04:03.140Z,97890.44
2023-04-10T10:09:07.054Z,97879.25
2023-04-10T10:14:19.886Z,97866.31
2023-04-10T10:19:28.495Z,97858.94
2023-04-10T10:24:34.515Z,97857.53
2023-04-10T10:29:41.202Z,97854.09
2023-04-10T10:34:45.975Z,97845.13
2023-04-10T10:39:58.948Z,97839.56
2023-04-10T10:45:14.617Z,97830.94
2023-04-10T10:50:18.138Z,97834.66
2023-04-10T10:55:38.028Z,97825.28
2023-04-10T11:01:12.773Z,97814.38
2023-04-10T11:06:19.423Z,97818.09
2023-04-10T11:11:24.083Z,97797.34
2023-04-10T11:22:15.303Z,97779.72
2023-04-10T11:27:39.958Z,97752.59
2023-04-10T11:32:44.192Z,97751.03
2023-04-10T11:37:49.130Z,97734.94
2023-04-10T11:42:52.475Z,97741.03
2023-04-10T11:47:56.201Z,97737.16
2023-04-10T11:53:00.822Z,97720.28
2023-04-10T11:58:03.968Z,97704.78
2023-04-10T12:03:07.482Z,97707.69
2023-04-10T12:08:12.078Z,97705.38
2023-04-10T12:13:26.703Z,97704.00
2023-04-10T12:18:31.326Z,97696.47
2023-04-10T12:23:39.197Z,97680.41
2023-04-10T12:28:43.929Z,97673.88
2023-04-10T12:33:47.625Z,97677.88
2023-04-10T12:38:52.836Z,97657.34
2023-04-10T12:44:08.991Z,97653.59
2023-04-10T12:49:14.334Z,97644.00
2023-04-10T12:54:30.901Z,97629.50
2023-04-10T12:59:34.431Z,97634.91
2023-04-10T13:04:37.792Z,97623.16
2023-04-10T13:09:42.855Z,97611.56
2023-04-10T13:14:46.224Z,97606.84
2023-04-10T13:19:49.592Z,97615.56
2023-04-10T13:24:54.434Z,97605.78
2023-04-10T13:29:57.679Z,97589.97
2023-04-10T13:35:00.828Z,97580.63
2023-04-10T13:40:06.389Z,97564.00
2023-04-10T13:45:10.442Z,97559.78
2023-04-10T13:50:13.705Z,97553.56
2023-04-10T13:55:18.495Z,97546.63
2023-04-10T14:00:22.108Z,97539.59
2023-04-10T14:05:25.378Z,97538.22
2023-04-10T14:10:30.024Z,97532.88
2023-04-10T14:15:33.320Z,97534.03
2023-04-10T14:20:36.499Z,97540.31
2023-04-10T14:25:41.001Z,97536.75
2023-04-10T14:30:44.094Z,97534.75
2023-04-10T14:35:48.317Z,97532.28
2023-04-10T14:40:53.919Z,97522.09
2023-04-10T14:45:57.024Z,97514.47
2023-04-10T14:51:01.291Z,97496.06
2023-04-10T14:56:12.856Z,97505.81
2023-04-10T15:01:16.347Z,97497.72
2023-04-10T15:06:19.681Z,97486.72
2023-04-10T15:11:24.224Z,97471.84
2023-04-10T15:16:27.542Z,97464.31
2023-04-10T15:21:31.517Z,97451.81
2023-04-10T15:26:37.154Z,97461.16
2023-04-10T15:31:40.323Z,97441.63
2023-04-10T15:36:43.522Z,97438.59
2023-04-10T15:41:50.028Z,97440.25
2023-04-10T15:46:53.534Z,97428.25
2023-04-10T15:51:56.707Z,97417.34
2023-04-10T15:57:01.830Z,97406.19
2023-04-10T16:02:05.158Z,97407.91
2023-04-10T16:07:08.332Z,97402.63
2023-04-10T16:12:13.963Z,97393.22
2023-04-10T16:17:17.095Z,97382.97
2023-04-10T16:22:20.418Z,97383.84
2023-04-10T16:27:25.212Z,97360.88
2023-04-10T16:32:30.377Z,97356.84
2023-04-10T16:37:34.520Z,97334.56
2023-04-10T16:42:39.272Z,97336.22
2023-04-10T16:47:44.495Z,97324.75
2023-04-10T16:52:47.692Z,97303.13
2023-04-10T16:57:52.206Z,97294.44
2023-04-10T17:02:55.376Z,97293.75
2023-04-10T17:07:59.120Z,97284.69
2023-04-10T17:13:04.282Z,97283.59
2023-04-10T17:18:07.577Z,97272.63
2023-04-10T17:23:11.202Z,97272.09
2023-04-10T17:28:15.995Z,97272.34
2023-04-10T17:33:19.054Z,97282.16
2023-04-10T17:38:22.302Z,97273.94
2023-04-10T17:43:26.841Z,97246.69
2023-04-10T17:48:31.650Z,97232.28
2023-04-10T17:53:35.424Z,97236.03
2023-04-10T17:58:41.946Z,97228.63
2023-04-10T18:03:45.330Z,97224.25
2023-04-10T18:08:48.480Z,97219.78
2023-04-10T18:13:55.990Z,97217.56
2023-04-10T18:19:01.763Z,97207.78
2023-04-10T18:24:05.596Z,97216.91
2023-04-10T18:29:10.335Z,97214.66
2023-04-10T18:34:13.886Z,97204.75
2023-04-10T18:39:17.595Z,97197.91
2023-04-10T18:44:29.576Z,97191.06
2023-04-10T18:49:35.445Z,97200.16
2023-04-10T18:54:44.210Z,97185.22
2023-04-10T18:59:49.047Z,97172.13
2023-04-10T19:04:59.404Z,97165.94
2023-04-10T19:10:02.793Z,97160.03
2023-04-10T19:15:13.480Z,97159.56
2023-04-10T19:20:49.230Z,97143.03
2023-04-10T19:25:43.776Z,97138.00
2023-04-10T19:30:50.112Z,97128.59
2023-04-10T19:35:55.605Z,97121.75
2023-04-10T19:41:00.791Z,97118.72
2023-04-10T19:46:05.820Z,97120.25
2023-04-10T19:51:10.120Z,97121.38
2023-04-10T19:56:13.489Z,97115.47
2023-04-10T20:01:24.295Z,97117.63
2023-04-10T20:06:31.825Z,97120.66
2023-04-10T20:11:35.272Z,97097.22
2023-04-10T20:16:41.188Z,97082.41
2023-04-10T20:21:45.121Z,97098.00
2023-04-10T20:26:51.029Z,97089.25
2023-04-10T20:31:56.026Z,97070.22
2023-04-10T20:37:02.160Z,97047.38
2023-04-10T20:42:08.806Z,97036.44
2023-04-10T20:47:14.786Z,97046.91
2023-04-10T20:52:18.115Z,97033.13
2023-04-10T20:57:22.124Z,97030.03
2023-04-10T21:02:27.112Z,97005.75
2023-04-10T21:07:30.682Z,97003.84
2023-04-10T21:12:33.817Z,96979.69
2023-04-10T21:17:38.482Z,96973.53
2023-04-10T21:22:41.599Z,96952.16
2023-04-10T21:27:44.757Z,96953.47
2023-04-10T21:32:49.366Z,96953.84
2023-04-10T21:37:58.009Z,96962.41
2023-04-10T21:43:02.211Z,96967.16
2023-04-10T21:48:07.187Z,96953.59
2023-04-10T21:53:10.502Z,96953.34
2023-04-10T21:58:13.746Z,96960.75
2023-04-10T22:03:20.448Z,96934.69
2023-04-10T22:08:23.898Z,96944.75
2023-04-10T22:13:30.958Z,96924.78
2023-04-10T22:18:36.053Z,96903.22
2023-04-10T22:23:39.227Z,96887.59
2023-04-10T22:28:42.317Z,96908.16
2023-04-10T22:33:49.274Z,96905.09
2023-04-10T22:38:52.877Z,96900.56
2023-04-10T22:43:56.256Z,96897.34
2023-04-10T22:49:00.768Z,96884.06
2023-04-10T22:54:03.877Z,96856.91
2023-04-10T22:59:07.143Z,96811.28
2023-04-10T23:04:11.803Z,96780.16
2023-04-10T23:09:15.059Z,96799.09
2023-04-10T23:14:18.109Z,96830.69
2023-04-10T23:19:22.705Z,96849.25
2023-04-10T23:24:26.006Z,96852.59
2023-04-10T23:29:29.083Z,96845.59
2023-04-10T23:34:33.564Z,96831.91
2023-04-10T23:39:36.780Z,96833.53
2023-04-10T23:44:39.905Z,96821.47
2023-04-10T23:49:44.562Z,96825.47
2023-04-10T23:54:47.877Z,96806.97
2023-04-10T23:59:51.765Z,96807.47
